Time;durP1;ratioP1;P1;durP2;ratioP2;P2;SDS_P1;SDS_P2;PMS_P1;PMS_P2;Temp;Humidity;BMP_temperature;BMP_pressure;BME280_temperature;BME280_humidity;BME280_pressure;Samples;Min_cycle;Max_cycle;Signal;HPM_P1;HPM_P2
2020/08/24 00:01:30;;;;;;;1.63;1.42;;;;;;;23.30;68.47;100670.95;;;;-51
2020/08/24 00:04:31;;;;;;;1.41;1.31;;;;;;;23.29;68.48;100674.08;;;;-47
2020/08/24 00:07:30;;;;;;;1.70;1.44;;;;;;;23.27;68.51;100665.00;;;;-47
2020/08/24 00:10:30;;;;;;;1.41;1.31;;;;;;;23.28;68.64;100666.04;;;;-51
2020/08/24 00:13:31;;;;;;;1.47;1.37;;;;;;;23.28;68.65;100661.63;;;;-47
2020/08/24 00:16:30;;;;;;;1.47;1.37;;;;;;;23.28;68.66;100656.08;;;;-51
2020/08/24 00:19:30;;;;;;;1.67;1.30;;;;;;;23.27;68.67;100654.28;;;;-58
2020/08/24 00:22:30;;;;;;;1.67;1.30;;;;;;;23.27;68.58;100651.26;;;;-47
2020/08/24 00:25:30;;;;;;;2.54;1.33;;;;;;;23.27;68.55;100647.16;;;;-47
2020/08/24 00:28:30;;;;;;;1.50;1.40;;;;;;;23.25;68.52;100637.70;;;;-58
2020/08/24 00:31:31;;;;;;;1.54;1.40;;;;;;;23.26;68.65;100636.13;;;;-51
2020/08/24 00:34:30;;;;;;;1.69;1.39;;;;;;;23.25;68.66;100634.27;;;;-51
2020/08/24 00:37:30;;;;;;;1.51;1.40;;;;;;;23.25;68.64;100631.24;;;;-47
2020/08/24 00:40:30;;;;;;;1.56;1.40;;;;;;;23.25;68.68;100630.44;;;;-51
2020/08/24 00:43:30;;;;;;;1.41;1.31;;;;;;;23.23;68.61;100627.33;;;;-51
2020/08/24 00:46:30;;;;;;;1.41;1.30;;;;;;;23.23;68.74;100622.51;;;;-47
2020/08/24 00:49:30;;;;;;;1.71;1.47;;;;;;;23.22;68.57;100618.58;;;;-51
2020/08/24 00:52:30;;;;;;;1.49;1.39;;;;;;;23.22;68.68;100624.79;;;;-51
2020/08/24 00:55:30;;;;;;;1.47;1.37;;;;;;;23.22;68.62;100623.57;;;;-51
2020/08/24 00:58:30;;;;;;;1.49;1.39;;;;;;;23.22;68.74;100619.39;;;;-51
2020/08/24 01:01:30;;;;;;;1.77;1.37;;;;;;;23.21;68.70;100614.26;;;;-58
2020/08/24 01:04:30;;;;;;;1.42;1.32;;;;;;;23.20;68.77;100615.73;;;;-58
2020/08/24 01:07:31;;;;;;;1.45;1.35;;;;;;;23.20;68.73;100612.80;;;;-47
2020/08/24 01:10:31;;;;;;;1.49;1.39;;;;;;;23.20;68.75;100609.45;;;;-47
2020/08/24 01:13:30;;;;;;;1.55;1.42;;;;;;;23.19;68.79;100604.94;;;;-51
2020/08/24 01:16:30;;;;;;;1.42;1.32;;;;;;;23.19;68.75;100604.61;;;;-51
2020/08/24 01:19:30;;;;;;;1.52;1.42;;;;;;;23.19;68.79;100607.31;;;;-58
2020/08/24 01:22:30;;;;;;;1.35;1.25;;;;;;;23.19;68.77;100608.96;;;;-51
2020/08/24 01:25:30;;;;;;;1.43;1.33;;;;;;;23.19;68.81;100604.55;;;;-51
2020/08/24 01:28:30;;;;;;;1.64;1.40;;;;;;;23.18;68.79;100604.89;;;;-47
2020/08/24 01:31:31;;;;;;;1.50;1.40;;;;;;;23.18;68.79;100599.63;;;;-47
2020/08/24 01:34:30;;;;;;;1.45;1.35;;;;;;;23.17;68.77;100598.91;;;;-51
2020/08/24 01:37:30;;;;;;;1.40;1.30;;;;;;;23.17;68.78;100601.84;;;;-47
2020/08/24 01:40:30;;;;;;;1.66;1.30;;;;;;;23.17;68.75;100601.04;;;;-51
2020/08/24 01:43:30;;;;;;;1.53;1.43;;;;;;;23.16;68.82;100602.28;;;;-51
2020/08/24 01:46:30;;;;;;;1.47;1.37;;;;;;;23.16;68.81;100601.70;;;;-58
2020/08/24 01:49:31;;;;;;;1.45;1.35;;;;;;;23.16;68.80;100598.83;;;;-47
2020/08/24 01:52:30;;;;;;;1.76;1.49;;;;;;;23.16;68.83;100599.17;;;;-51
2020/08/24 01:55:30;;;;;;;1.45;1.35;;;;;;;23.15;68.82;100598.19;;;;-51
2020/08/24 01:58:31;;;;;;;1.45;1.35;;;;;;;23.15;68.81;100595.97;;;;-51
2020/08/24 02:01:31;;;;;;;1.48;1.38;;;;;;;23.15;68.79;100596.39;;;;-46
2020/08/24 02:04:30;;;;;;;1.50;1.40;;;;;;;23.15;68.85;100595.08;;;;-51
2020/08/24 02:07:30;;;;;;;1.50;1.40;;;;;;;23.14;68.84;100597.80;;;;-51
2020/08/24 02:10:30;;;;;;;1.50;1.40;;;;;;;23.14;68.82;100596.83;;;;-51
2020/08/24 02:13:30;;;;;;;1.41;1.30;;;;;;;23.13;68.84;100596.80;;;;-58
2020/08/24 02:16:30;;;;;;;1.40;1.30;;;;;;;23.14;68.85;100599.33;;;;-51
2020/08/24 02:19:30;;;;;;;1.50;1.40;;;;;;;23.13;68.86;100598.38;;;;-51
2020/08/24 02:22:30;;;;;;;1.47;1.37;;;;;;;23.13;68.86;100598.86;;;;-51
2020/08/24 02:25:30;;;;;;;1.47;1.37;;;;;;;23.12;68.85;100594.54;;;;-51
2020/08/24 02:28:30;;;;;;;1.50;1.40;;;;;;;23.12;68.87;100595.86;;;;-51
2020/08/24 02:31:30;;;;;;;3.48;1.32;;;;;;;23.11;68.85;100594.36;;;;-51
2020/08/24 02:34:30;;;;;;;1.50;1.40;;;;;;;23.12;68.86;100593.63;;;;-51
2020/08/24 02:37:30;;;;;;;1.40;1.30;;;;;;;23.11;68.87;100597.48;;;;-51
2020/08/24 02:40:30;;;;;;;1.47;1.37;;;;;;;23.11;68.80;100598.14;;;;-51
2020/08/24 02:43:30;;;;;;;1.49;1.39;;;;;;;23.10;68.86;100590.30;;;;-47
2020/08/24 02:46:31;;;;;;;1.39;1.29;;;;;;;23.10;68.87;100587.52;;;;-47
2020/08/24 02:49:30;;;;;;;1.53;1.39;;;;;;;23.10;68.88;100582.30;;;;-51
2020/08/24 02:52:31;;;;;;;1.43;1.33;;;;;;;23.09;68.89;100587.59;;;;-47
2020/08/24 02:55:30;;;;;;;1.47;1.37;;;;;;;23.09;68.89;100582.29;;;;-51
2020/08/24 02:58:30;;;;;;;1.54;1.38;;;;;;;23.09;68.88;100582.95;;;;-51
2020/08/24 03:01:30;;;;;;;1.33;1.23;;;;;;;23.08;68.85;100581.81;;;;-51
2020/08/24 03:04:30;;;;;;;1.37;1.27;;;;;;;23.08;68.86;100581.08;;;;-58
2020/08/24 03:07:30;;;;;;;1.40;1.30;;;;;;;23.07;68.86;100572.72;;;;-57
2020/08/24 03:10:30;;;;;;;1.40;1.30;;;;;;;23.07;68.86;100576.16;;;;-57
2020/08/24 03:13:31;;;;;;;1.40;1.30;;;;;;;23.07;68.86;100574.45;;;;-47
2020/08/24 03:16:31;;;;;;;1.35;1.28;;;;;;;23.06;68.87;100575.78;;;;-58
2020/08/24 03:19:30;;;;;;;1.48;1.37;;;;;;;23.06;68.93;100576.35;;;;-51
2020/08/24 03:22:30;;;;;;;1.49;1.39;;;;;;;23.06;68.89;100571.52;;;;-51
2020/08/24 03:25:30;;;;;;;1.40;1.30;;;;;;;23.05;68.88;100569.88;;;;-47
2020/08/24 03:28:30;;;;;;;1.52;1.32;;;;;;;23.05;68.89;100561.47;;;;-51
2020/08/24 03:31:30;;;;;;;1.30;1.20;;;;;;;23.05;68.93;100562.70;;;;-47
2020/08/24 03:34:31;;;;;;;1.30;1.20;;;;;;;23.05;68.91;100562.20;;;;-47
2020/08/24 03:37:31;;;;;;;1.47;1.37;;;;;;;23.04;68.89;100561.41;;;;-49
2020/08/24 03:40:30;;;;;;;1.38;1.28;;;;;;;23.04;68.88;100562.13;;;;-51
2020/08/24 03:43:30;;;;;;;1.46;1.36;;;;;;;23.04;68.89;100560.44;;;;-51
2020/08/24 03:46:30;;;;;;;1.35;1.25;;;;;;;23.04;68.89;100563.13;;;;-51
2020/08/24 03:49:30;;;;;;;1.43;1.30;;;;;;;23.04;68.89;100558.14;;;;-50
2020/08/24 03:52:30;;;;;;;1.55;1.30;;;;;;;23.03;68.90;100562.70;;;;-50
2020/08/24 03:55:30;;;;;;;1.40;1.30;;;;;;;23.03;68.87;100559.84;;;;-51
2020/08/24 03:58:30;;;;;;;1.38;1.28;;;;;;;23.03;68.89;100567.04;;;;-51
2020/08/24 04:01:30;;;;;;;1.41;1.31;;;;;;;23.02;68.94;100562.64;;;;-50
2020/08/24 04:04:30;;;;;;;1.31;1.21;;;;;;;23.02;68.88;100560.45;;;;-50
2020/08/24 04:07:30;;;;;;;1.39;1.29;;;;;;;23.02;68.88;100564.61;;;;-51
2020/08/24 04:10:31;;;;;;;1.47;1.30;;;;;;;23.02;68.87;100568.13;;;;-47
2020/08/24 04:13:30;;;;;;;1.72;1.34;;;;;;;23.01;68.90;100564.19;;;;-50
2020/08/24 04:16:31;;;;;;;1.43;1.33;;;;;;;23.01;68.91;100571.38;;;;-46
2020/08/24 04:19:30;;;;;;;1.40;1.30;;;;;;;23.00;68.88;100570.22;;;;-51
2020/08/24 04:22:31;;;;;;;1.51;1.41;;;;;;;23.00;68.96;100570.62;;;;-47
2020/08/24 04:25:30;;;;;;;1.39;1.29;;;;;;;23.01;68.94;100567.70;;;;-58
2020/08/24 04:28:30;;;;;;;1.49;1.39;;;;;;;23.01;68.95;100564.35;;;;-51
2020/08/24 04:31:30;;;;;;;1.29;1.19;;;;;;;23.00;68.91;100564.41;;;;-50
2020/08/24 04:34:30;;;;;;;1.37;1.27;;;;;;;23.00;68.96;100564.09;;;;-47
2020/08/24 04:37:30;;;;;;;1.36;1.26;;;;;;;23.00;68.98;100569.07;;;;-51
2020/08/24 04:40:30;;;;;;;1.23;1.21;;;;;;;23.01;68.96;100567.78;;;;-58
2020/08/24 04:43:30;;;;;;;1.35;1.25;;;;;;;23.00;68.96;100567.61;;;;-57
2020/08/24 04:46:30;;;;;;;1.40;1.30;;;;;;;23.00;68.98;100568.92;;;;-47
2020/08/24 04:49:30;;;;;;;5.24;1.97;;;;;;;22.86;60.65;100565.08;;;;-47
2020/08/24 04:52:30;;;;;;;3.75;2.00;;;;;;;22.51;57.96;100567.72;;;;-51
2020/08/24 04:55:30;;;;;;;2.91;1.95;;;;;;;22.20;57.71;100566.67;;;;-50
2020/08/24 04:58:30;;;;;;;3.59;1.91;;;;;;;22.09;57.91;100564.25;;;;-51
2020/08/24 05:01:30;;;;;;;2.85;2.01;;;;;;;21.99;57.72;100565.91;;;;-52
2020/08/24 05:04:30;;;;;;;5.09;2.00;;;;;;;21.83;57.27;100569.46;;;;-51
2020/08/24 05:07:30;;;;;;;3.16;2.22;;;;;;;21.76;57.11;100570.03;;;;-51
2020/08/24 05:10:30;;;;;;;3.51;2.10;;;;;;;21.69;57.31;100565.81;;;;-51
2020/08/24 05:13:30;;;;;;;3.12;2.07;;;;;;;21.53;57.60;100567.28;;;;-50
2020/08/24 05:16:30;;;;;;;4.85;1.99;;;;;;;21.51;57.67;100567.86;;;;-61
2020/08/24 05:19:30;;;;;;;4.26;2.13;;;;;;;21.49;57.51;100566.55;;;;-57
2020/08/24 05:22:30;;;;;;;4.31;2.00;;;;;;;21.44;57.63;100564.70;;;;-50
2020/08/24 05:25:30;;;;;;;2.76;1.97;;;;;;;21.36;57.43;100554.80;;;;-55
2020/08/24 05:28:30;;;;;;;3.17;1.95;;;;;;;21.29;57.28;100563.92;;;;-59
2020/08/24 05:31:30;;;;;;;6.97;2.08;;;;;;;21.15;58.14;100562.45;;;;-57
2020/08/24 05:34:30;;;;;;;3.73;1.99;;;;;;;21.11;58.30;100565.30;;;;-58
2020/08/24 05:37:30;;;;;;;4.63;2.20;;;;;;;21.08;58.62;100562.82;;;;-57
2020/08/24 05:40:30;;;;;;;6.46;2.45;;;;;;;21.10;58.74;100562.83;;;;-58
2020/08/24 05:43:30;;;;;;;3.71;1.94;;;;;;;20.98;58.75;100570.73;;;;-52
2020/08/24 05:46:30;;;;;;;4.37;2.18;;;;;;;21.00;58.82;100572.13;;;;-58
2020/08/24 05:49:30;;;;;;;3.85;2.15;;;;;;;20.98;58.88;100574.62;;;;-58
2020/08/24 05:52:30;;;;;;;2.90;2.19;;;;;;;21.00;58.96;100578.32;;;;-59
2020/08/24 05:55:30;;;;;;;3.83;2.12;;;;;;;20.99;59.53;100579.27;;;;-52
2020/08/24 05:58:30;;;;;;;4.05;2.28;;;;;;;21.01;59.38;100576.84;;;;-56
2020/08/24 06:01:30;;;;;;;3.83;2.09;;;;;;;20.98;59.29;100579.02;;;;-60
2020/08/24 06:04:30;;;;;;;4.78;2.19;;;;;;;20.98;59.48;100576.84;;;;-52
2020/08/24 06:07:30;;;;;;;3.52;2.23;;;;;;;21.02;59.78;100574.14;;;;-58
2020/08/24 06:10:30;;;;;;;3.57;2.15;;;;;;;21.05;60.07;100580.77;;;;-60
2020/08/24 06:13:30;;;;;;;4.69;2.28;;;;;;;21.12;60.19;100579.55;;;;-57
2020/08/24 06:16:30;;;;;;;3.13;1.87;;;;;;;21.14;60.15;100576.36;;;;-60
2020/08/24 06:19:30;;;;;;;4.45;2.07;;;;;;;21.15;59.67;100576.86;;;;-59
2020/08/24 06:22:31;;;;;;;5.81;2.19;;;;;;;21.14;59.35;100576.04;;;;-50
2020/08/24 06:25:30;;;;;;;4.42;2.00;;;;;;;21.14;59.57;100577.92;;;;-51
2020/08/24 06:28:30;;;;;;;4.91;2.10;;;;;;;21.13;59.91;100580.37;;;;-50
2020/08/24 06:31:30;;;;;;;2.60;1.87;;;;;;;21.14;59.45;100579.87;;;;-51
2020/08/24 06:34:30;;;;;;;4.73;2.19;;;;;;;21.12;60.00;100577.42;;;;-57
2020/08/24 06:37:30;;;;;;;4.03;2.11;;;;;;;21.12;60.15;100580.44;;;;-53
2020/08/24 06:40:30;;;;;;;5.28;2.20;;;;;;;21.15;59.67;100573.28;;;;-58
2020/08/24 06:43:30;;;;;;;4.73;2.20;;;;;;;21.11;59.67;100573.11;;;;-56
2020/08/24 06:46:30;;;;;;;5.64;2.07;;;;;;;21.08;59.90;100569.67;;;;-51
2020/08/24 06:49:30;;;;;;;3.17;2.00;;;;;;;21.09;60.26;100568.95;;;;-57
2020/08/24 06:52:30;;;;;;;3.63;2.09;;;;;;;21.11;60.16;100565.05;;;;-59
2020/08/24 06:55:30;;;;;;;3.99;2.00;;;;;;;21.14;59.45;100564.62;;;;-52
2020/08/24 06:58:30;;;;;;;5.93;1.98;;;;;;;21.16;59.07;100564.05;;;;-52
2020/08/24 07:01:30;;;;;;;3.41;2.03;;;;;;;21.13;58.71;100567.25;;;;-57
2020/08/24 07:04:30;;;;;;;4.43;2.04;;;;;;;21.14;59.41;100568.30;;;;-59
2020/08/24 07:07:30;;;;;;;3.90;1.95;;;;;;;21.16;59.64;100579.71;;;;-56
2020/08/24 07:10:30;;;;;;;9.23;2.17;;;;;;;21.20;59.93;100577.75;;;;-51
2020/08/24 07:13:30;;;;;;;6.74;1.95;;;;;;;21.26;59.78;100573.04;;;;-51
2020/08/24 07:16:30;;;;;;;5.41;1.98;;;;;;;21.31;59.69;100573.11;;;;-49
2020/08/24 07:19:30;;;;;;;5.11;2.00;;;;;;;21.35;59.60;100577.11;;;;-53
2020/08/24 07:25:30;;;;;;;4.61;1.95;;;;;;;21.42;60.32;100591.75;;;;-51
2020/08/24 07:28:30;;;;;;;3.11;1.76;;;;;;;21.44;60.67;100591.19;;;;-49
2020/08/24 07:31:30;;;;;;;2.45;1.72;;;;;;;21.47;60.87;100593.45;;;;-49
2020/08/24 07:34:30;;;;;;;3.29;1.83;;;;;;;21.49;61.09;100597.20;;;;-49
2020/08/24 07:37:30;;;;;;;2.72;1.80;;;;;;;21.52;61.16;100594.92;;;;-55
2020/08/24 07:40:30;;;;;;;2.87;1.67;;;;;;;21.53;61.35;100586.45;;;;-57
2020/08/24 07:43:30;;;;;;;3.63;1.89;;;;;;;21.55;61.48;100588.90;;;;-57
2020/08/24 07:46:30;;;;;;;2.66;1.70;;;;;;;21.56;61.66;100592.17;;;;-51
2020/08/24 07:49:30;;;;;;;1.96;1.73;;;;;;;21.58;61.75;100593.61;;;;-51
2020/08/24 07:52:30;;;;;;;3.48;1.93;;;;;;;21.59;61.83;100589.87;;;;-58
2020/08/24 07:55:30;;;;;;;3.83;1.88;;;;;;;21.61;61.96;100584.82;;;;-53
2020/08/24 07:58:30;;;;;;;2.52;1.79;;;;;;;21.62;62.10;100583.20;;;;-49
2020/08/24 08:01:30;;;;;;;2.73;1.89;;;;;;;21.63;62.23;100580.42;;;;-51
2020/08/24 08:05:30;;;;;;;2.81;1.77;;;;;;;21.66;62.40;100587.34;;;;-49
2020/08/24 08:08:30;;;;;;;3.27;1.85;;;;;;;21.67;62.50;100588.41;;;;-49
2020/08/24 08:13:30;;;;;;;2.25;1.71;;;;;;;21.69;62.62;100585.96;;;;-57
2020/08/24 08:16:30;;;;;;;4.10;1.98;;;;;;;21.71;62.85;100586.37;;;;-57
2020/08/24 08:21:30;;;;;;;4.42;1.69;;;;;;;21.76;62.72;100589.36;;;;-57
2020/08/24 08:24:30;;;;;;;5.68;1.97;;;;;;;21.78;62.39;100589.20;;;;-60
2020/08/24 08:27:30;;;;;;;3.43;1.89;;;;;;;21.80;62.52;100591.88;;;;-51
2020/08/24 08:30:30;;;;;;;4.04;2.11;;;;;;;21.83;62.75;100586.11;;;;-46
2020/08/24 08:33:30;;;;;;;2.83;1.79;;;;;;;21.85;62.49;100587.90;;;;-53
2020/08/24 08:36:30;;;;;;;2.36;1.89;;;;;;;21.88;62.71;100584.30;;;;-59
2020/08/24 08:39:30;;;;;;;5.47;1.98;;;;;;;21.90;63.21;100577.77;;;;-59
2020/08/24 08:42:31;;;;;;;4.05;1.83;;;;;;;21.92;63.32;100578.09;;;;-59
2020/08/24 08:45:31;;;;;;;6.18;1.81;;;;;;;21.93;63.32;100576.28;;;;-56
2020/08/24 08:48:30;;;;;;;4.53;1.80;;;;;;;21.94;63.38;100578.75;;;;-59
2020/08/24 08:51:30;;;;;;;7.65;2.16;;;;;;;21.96;63.58;100574.98;;;;-50
2020/08/24 08:54:30;;;;;;;10.16;1.93;;;;;;;21.99;63.70;100574.23;;;;-48
2020/08/24 08:57:30;;;;;;;8.69;2.07;;;;;;;22.03;63.66;100574.95;;;;-50
2020/08/24 09:00:30;;;;;;;7.21;2.07;;;;;;;22.07;63.68;100572.91;;;;-59
2020/08/24 09:03:30;;;;;;;4.59;1.93;;;;;;;22.09;63.71;100565.31;;;;-47
2020/08/24 09:06:30;;;;;;;9.41;2.12;;;;;;;22.13;63.67;100567.92;;;;-51
2020/08/24 09:09:30;;;;;;;10.15;2.25;;;;;;;22.14;63.88;100566.59;;;;-51
2020/08/24 09:12:30;;;;;;;11.34;2.21;;;;;;;22.15;63.84;100565.70;;;;-51
2020/08/24 09:15:30;;;;;;;8.55;2.15;;;;;;;22.17;63.79;100564.72;;;;-54
2020/08/24 09:18:30;;;;;;;9.66;2.06;;;;;;;22.18;63.87;100567.89;;;;-52
2020/08/24 09:21:30;;;;;;;7.43;2.04;;;;;;;22.19;63.97;100562.92;;;;-51
2020/08/24 09:24:30;;;;;;;7.90;2.18;;;;;;;22.21;64.00;100560.70;;;;-52
2020/08/24 09:27:30;;;;;;;6.16;2.06;;;;;;;22.22;64.08;100561.50;;;;-59
2020/08/24 09:30:30;;;;;;;8.86;2.27;;;;;;;22.24;64.08;100560.22;;;;-47
2020/08/24 09:33:30;;;;;;;6.29;2.06;;;;;;;22.27;64.13;100561.29;;;;-53
2020/08/24 09:36:30;;;;;;;11.72;2.29;;;;;;;22.29;63.92;100558.09;;;;-60
2020/08/24 09:39:30;;;;;;;8.75;2.24;;;;;;;22.31;64.08;100560.80;;;;-59
2020/08/24 09:42:30;;;;;;;8.85;2.20;;;;;;;22.31;64.07;100561.20;;;;-51
2020/08/24 09:45:30;;;;;;;11.29;2.43;;;;;;;22.33;64.08;100559.14;;;;-56
2020/08/24 09:48:30;;;;;;;6.79;2.23;;;;;;;22.36;63.76;100553.34;;;;-57
2020/08/24 09:51:30;;;;;;;8.99;2.42;;;;;;;22.36;63.97;100551.62;;;;-51
2020/08/24 09:54:30;;;;;;;7.22;2.31;;;;;;;22.36;63.90;100552.77;;;;-51
2020/08/24 09:57:30;;;;;;;6.35;1.89;;;;;;;22.37;63.92;100550.89;;;;-50
2020/08/24 10:00:30;;;;;;;7.02;2.21;;;;;;;22.37;63.95;100553.41;;;;-57
2020/08/24 10:03:30;;;;;;;9.97;2.08;;;;;;;22.37;63.95;100547.13;;;;-50
2020/08/24 10:06:30;;;;;;;5.42;1.81;;;;;;;22.38;63.93;100551.59;;;;-51
2020/08/24 10:09:30;;;;;;;5.35;2.01;;;;;;;22.38;63.94;100548.66;;;;-56
2020/08/24 10:12:30;;;;;;;6.22;2.13;;;;;;;22.39;63.94;100552.84;;;;-48
2020/08/24 10:15:30;;;;;;;3.83;1.93;;;;;;;22.39;63.98;100549.95;;;;-48
2020/08/24 10:18:30;;;;;;;5.11;2.03;;;;;;;22.39;63.94;100542.69;;;;-57
2020/08/24 10:21:30;;;;;;;6.21;1.87;;;;;;;22.40;63.97;100541.56;;;;-48
2020/08/24 10:24:30;;;;;;;5.88;2.00;;;;;;;22.41;63.97;100542.37;;;;-52
2020/08/24 10:27:30;;;;;;;6.86;2.38;;;;;;;22.42;63.97;100536.81;;;;-52
2020/08/24 10:30:30;;;;;;;4.22;2.06;;;;;;;22.42;63.97;100536.00;;;;-50
2020/08/24 10:33:30;;;;;;;4.07;1.78;;;;;;;22.42;64.01;100535.98;;;;-51
2020/08/24 10:36:30;;;;;;;4.42;2.01;;;;;;;22.42;63.98;100534.68;;;;-50
2020/08/24 10:39:30;;;;;;;3.80;1.89;;;;;;;22.43;64.01;100531.08;;;;-51
2020/08/24 10:42:30;;;;;;;3.85;1.89;;;;;;;22.44;64.04;100531.02;;;;-50
2020/08/24 10:45:30;;;;;;;5.06;1.82;;;;;;;22.44;64.05;100530.52;;;;-57
2020/08/24 10:48:30;;;;;;;6.83;1.93;;;;;;;22.44;64.04;100524.64;;;;-57
2020/08/24 10:51:30;;;;;;;5.88;1.95;;;;;;;22.44;64.08;100521.95;;;;-50
2020/08/24 10:54:30;;;;;;;4.49;1.71;;;;;;;22.44;64.11;100519.66;;;;-57
2020/08/24 10:57:30;;;;;;;7.37;1.91;;;;;;;22.45;64.08;100519.06;;;;-57
2020/08/24 11:00:30;;;;;;;5.15;2.00;;;;;;;22.44;64.10;100516.87;;;;-48
2020/08/24 11:03:30;;;;;;;3.27;1.79;;;;;;;22.45;64.09;100512.53;;;;-50
2020/08/24 11:06:30;;;;;;;4.30;1.78;;;;;;;22.45;64.11;100512.47;;;;-51
2020/08/24 11:09:30;;;;;;;5.82;1.91;;;;;;;22.46;64.12;100514.58;;;;-57
2020/08/24 11:12:30;;;;;;;4.72;1.83;;;;;;;22.46;64.15;100510.91;;;;-48
2020/08/24 11:15:30;;;;;;;5.77;1.70;;;;;;;22.46;64.14;100510.25;;;;-48
2020/08/24 11:18:30;;;;;;;3.65;1.88;;;;;;;22.47;64.14;100506.72;;;;-50
2020/08/24 11:21:30;;;;;;;3.04;1.77;;;;;;;22.47;64.15;100499.30;;;;-51
2020/08/24 11:24:30;;;;;;;3.53;1.75;;;;;;;22.47;64.22;100491.39;;;;-51
2020/08/24 11:27:30;;;;;;;2.70;1.75;;;;;;;22.48;64.22;100492.36;;;;-51
2020/08/24 11:30:30;;;;;;;2.83;1.69;;;;;;;22.48;64.23;100491.63;;;;-51
2020/08/24 11:33:30;;;;;;;4.23;1.77;;;;;;;22.48;64.27;100492.27;;;;-51
2020/08/24 11:36:30;;;;;;;2.70;1.63;;;;;;;22.49;64.23;100481.64;;;;-57
2020/08/24 11:39:30;;;;;;;2.80;1.74;;;;;;;22.49;64.23;100482.21;;;;-57
2020/08/24 11:42:30;;;;;;;2.01;1.65;;;;;;;22.50;64.26;100484.11;;;;-57
2020/08/24 11:45:30;;;;;;;2.95;1.66;;;;;;;22.49;64.28;100481.09;;;;-48
2020/08/24 11:48:30;;;;;;;3.20;1.63;;;;;;;22.50;64.27;100473.31;;;;-51
2020/08/24 11:51:30;;;;;;;2.51;1.59;;;;;;;22.50;64.33;100475.45;;;;-50
2020/08/24 11:54:30;;;;;;;5.69;1.88;;;;;;;22.50;64.31;100478.05;;;;-51
2020/08/24 11:57:30;;;;;;;6.46;1.83;;;;;;;22.52;64.33;100474.95;;;;-48
2020/08/24 12:00:30;;;;;;;5.23;1.74;;;;;;;22.53;64.38;100469.36;;;;-49
2020/08/24 12:03:30;;;;;;;3.86;1.74;;;;;;;22.54;64.46;100470.35;;;;-50
2020/08/24 12:06:30;;;;;;;2.16;1.60;;;;;;;22.57;64.51;100464.28;;;;-49
2020/08/24 12:09:30;;;;;;;4.09;1.76;;;;;;;22.58;64.57;100456.83;;;;-52
2020/08/24 12:12:30;;;;;;;3.11;1.66;;;;;;;22.60;64.64;100460.52;;;;-52
2020/08/24 12:15:30;;;;;;;2.79;1.51;;;;;;;22.62;64.65;100450.03;;;;-57
2020/08/24 12:18:30;;;;;;;3.52;1.84;;;;;;;22.63;64.54;100446.43;;;;-63
2020/08/24 12:21:30;;;;;;;4.85;2.04;;;;;;;22.65;64.40;100447.90;;;;-52
2020/08/24 12:24:30;;;;;;;3.30;1.59;;;;;;;22.66;64.77;100439.12;;;;-51
2020/08/24 12:27:30;;;;;;;4.30;1.76;;;;;;;22.67;64.69;100437.00;;;;-47
2020/08/24 12:30:30;;;;;;;4.28;1.60;;;;;;;22.69;64.75;100435.37;;;;-54
2020/08/24 12:33:30;;;;;;;10.50;1.72;;;;;;;22.71;64.79;100428.41;;;;-54
2020/08/24 12:36:30;;;;;;;5.58;1.75;;;;;;;22.72;64.74;100426.34;;;;-52
2020/08/24 12:39:30;;;;;;;5.40;1.79;;;;;;;22.74;64.83;100425.11;;;;-52
2020/08/24 12:42:30;;;;;;;4.46;1.76;;;;;;;22.75;64.49;100428.05;;;;-49
2020/08/24 12:45:30;;;;;;;3.78;1.80;;;;;;;22.77;64.66;100429.02;;;;-46
2020/08/24 12:48:30;;;;;;;4.49;1.85;;;;;;;22.78;64.54;100423.92;;;;-49
2020/08/24 12:51:30;;;;;;;6.45;1.81;;;;;;;22.80;64.64;100423.68;;;;-54
2020/08/24 12:54:30;;;;;;;6.67;1.81;;;;;;;22.81;64.66;100419.26;;;;-47
2020/08/24 12:57:30;;;;;;;4.18;1.71;;;;;;;22.82;64.69;100415.66;;;;-57
2020/08/24 13:00:30;;;;;;;9.20;1.92;;;;;;;22.82;64.64;100421.28;;;;-59
2020/08/24 13:03:30;;;;;;;6.37;1.78;;;;;;;22.81;64.59;100420.42;;;;-57
2020/08/24 13:06:30;;;;;;;7.32;1.79;;;;;;;22.79;64.45;100414.46;;;;-50
2020/08/24 13:09:30;;;;;;;4.61;1.87;;;;;;;22.78;64.62;100411.67;;;;-57
2020/08/24 13:12:30;;;;;;;3.68;1.70;;;;;;;22.77;64.67;100412.93;;;;-57
2020/08/24 13:15:30;;;;;;;3.66;1.71;;;;;;;22.75;64.71;100414.25;;;;-52
2020/08/24 13:18:30;;;;;;;4.53;1.87;;;;;;;22.76;64.72;100419.13;;;;-58
2020/08/24 13:21:30;;;;;;;3.95;1.70;;;;;;;22.74;64.76;100412.38;;;;-57
2020/08/24 13:24:30;;;;;;;5.06;1.68;;;;;;;22.72;64.74;100409.27;;;;-57
2020/08/24 13:27:30;;;;;;;7.05;1.89;;;;;;;22.73;64.76;100405.84;;;;-51
2020/08/24 13:30:30;;;;;;;4.46;1.79;;;;;;;22.75;64.72;100407.96;;;;-51
2020/08/24 13:33:30;;;;;;;6.68;1.87;;;;;;;22.77;64.65;100407.61;;;;-55
2020/08/24 13:36:30;;;;;;;6.10;1.57;;;;;;;22.79;64.66;100405.14;;;;-60
2020/08/24 13:39:30;;;;;;;4.44;1.80;;;;;;;22.81;64.63;100412.32;;;;-47
2020/08/24 13:42:30;;;;;;;4.91;1.72;;;;;;;22.81;64.74;100409.05;;;;-52
2020/08/24 13:45:30;;;;;;;3.28;1.55;;;;;;;22.82;64.82;100410.73;;;;-54
2020/08/24 13:48:30;;;;;;;4.65;1.72;;;;;;;22.83;64.83;100417.30;;;;-51
2020/08/24 13:51:30;;;;;;;5.71;1.82;;;;;;;22.82;64.71;100417.29;;;;-59
2020/08/24 13:54:30;;;;;;;3.20;1.54;;;;;;;22.80;64.73;100416.89;;;;-52
2020/08/24 13:57:30;;;;;;;4.07;1.69;;;;;;;22.80;64.81;100415.83;;;;-51
2020/08/24 14:00:30;;;;;;;4.66;1.76;;;;;;;22.78;64.81;100410.36;;;;-52
2020/08/24 14:03:30;;;;;;;4.70;1.57;;;;;;;22.77;64.81;100407.78;;;;-53
2020/08/24 14:06:30;;;;;;;4.78;1.83;;;;;;;22.78;65.12;100407.25;;;;-55
2020/08/24 14:09:30;;;;;;;4.43;1.81;;;;;;;22.80;65.03;100401.94;;;;-57
2020/08/24 14:12:30;;;;;;;4.57;1.78;;;;;;;22.81;65.21;100402.92;;;;-54
2020/08/24 14:15:30;;;;;;;4.03;1.67;;;;;;;22.83;65.36;100402.16;;;;-51
2020/08/24 14:18:30;;;;;;;3.43;1.69;;;;;;;22.85;65.41;100400.01;;;;-54
2020/08/24 14:21:30;;;;;;;4.53;1.77;;;;;;;22.86;65.56;100403.03;;;;-47
2020/08/24 14:24:30;;;;;;;3.23;1.59;;;;;;;22.87;65.65;100400.58;;;;-50
2020/08/24 14:27:30;;;;;;;3.91;1.71;;;;;;;22.89;65.71;100399.66;;;;-49
2020/08/24 14:30:30;;;;;;;5.61;1.62;;;;;;;22.90;65.82;100394.33;;;;-54
2020/08/24 14:33:30;;;;;;;5.15;1.59;;;;;;;22.92;65.98;100385.58;;;;-50
2020/08/24 14:36:30;;;;;;;3.71;1.54;;;;;;;22.93;65.97;100384.58;;;;-50
2020/08/24 14:39:30;;;;;;;4.08;1.61;;;;;;;22.94;66.05;100385.55;;;;-52
2020/08/24 14:42:30;;;;;;;3.93;1.58;;;;;;;22.96;66.03;100381.62;;;;-54
2020/08/24 14:45:30;;;;;;;3.27;1.71;;;;;;;22.97;66.00;100388.63;;;;-56
2020/08/24 14:48:30;;;;;;;4.10;1.63;;;;;;;22.98;66.00;100393.13;;;;-57
2020/08/24 14:51:30;;;;;;;2.51;1.68;;;;;;;22.98;66.01;100390.59;;;;-51
2020/08/24 14:54:30;;;;;;;3.75;1.58;;;;;;;22.99;65.94;100389.66;;;;-47
2020/08/24 14:57:30;;;;;;;2.85;1.57;;;;;;;23.00;65.85;100385.67;;;;-47
2020/08/24 15:00:30;;;;;;;4.58;1.73;;;;;;;23.02;65.75;100386.01;;;;-52
2020/08/24 15:03:30;;;;;;;7.07;1.87;;;;;;;23.03;65.43;100388.02;;;;-51
2020/08/24 15:06:30;;;;;;;7.91;2.12;;;;;;;23.05;65.82;100380.98;;;;-50
2020/08/24 15:09:30;;;;;;;14.81;2.27;;;;;;;23.05;65.68;100387.52;;;;-53
2020/08/24 15:12:30;;;;;;;10.77;1.88;;;;;;;23.05;65.92;100377.15;;;;-52
2020/08/24 15:15:30;;;;;;;10.51;1.96;;;;;;;23.04;65.78;100379.94;;;;-61
2020/08/24 15:18:30;;;;;;;8.47;2.10;;;;;;;23.04;65.52;100386.39;;;;-56
2020/08/24 15:21:30;;;;;;;7.92;1.79;;;;;;;23.03;65.66;100377.56;;;;-56
2020/08/24 15:24:30;;;;;;;10.63;2.07;;;;;;;23.03;65.61;100378.06;;;;-54
2020/08/24 15:27:30;;;;;;;5.43;1.74;;;;;;;23.02;65.52;100379.06;;;;-56
2020/08/24 15:30:30;;;;;;;7.41;1.97;;;;;;;23.01;65.56;100368.91;;;;-45
2020/08/24 15:33:30;;;;;;;7.37;1.80;;;;;;;23.00;65.56;100371.45;;;;-50
2020/08/24 15:36:30;;;;;;;5.36;1.66;;;;;;;22.99;65.59;100368.41;;;;-45
2020/08/24 15:39:30;;;;;;;4.80;1.71;;;;;;;22.99;65.54;100370.62;;;;-50
2020/08/24 15:42:30;;;;;;;5.17;1.90;;;;;;;22.97;65.51;100371.80;;;;-50
2020/08/24 15:45:30;;;;;;;5.15;1.77;;;;;;;22.99;65.35;100375.04;;;;-50
2020/08/24 15:48:30;;;;;;;4.37;1.73;;;;;;;22.98;65.34;100368.45;;;;-50
2020/08/24 15:51:30;;;;;;;4.99;1.79;;;;;;;22.97;65.33;100364.20;;;;-50
2020/08/24 15:54:30;;;;;;;4.78;1.80;;;;;;;22.96;65.32;100359.55;;;;-50
2020/08/24 15:57:30;;;;;;;6.64;1.83;;;;;;;22.97;65.31;100364.03;;;;-49
2020/08/24 16:00:30;;;;;;;6.54;1.66;;;;;;;22.97;65.22;100362.14;;;;-46
2020/08/24 16:03:30;;;;;;;4.23;1.87;;;;;;;22.98;65.41;100363.88;;;;-57
2020/08/24 16:06:30;;;;;;;6.29;1.60;;;;;;;22.99;65.36;100360.74;;;;-54
2020/08/24 16:09:30;;;;;;;4.44;1.61;;;;;;;23.01;65.38;100360.50;;;;-59
2020/08/24 16:12:30;;;;;;;5.29;1.79;;;;;;;23.03;65.31;100352.65;;;;-53
2020/08/24 16:15:30;;;;;;;4.31;1.60;;;;;;;23.03;65.41;100349.61;;;;-51
2020/08/24 16:18:30;;;;;;;4.00;1.60;;;;;;;23.03;65.46;100345.11;;;;-59
2020/08/24 16:21:30;;;;;;;3.61;1.55;;;;;;;23.06;65.53;100346.91;;;;-54
2020/08/24 16:24:30;;;;;;;5.25;1.60;;;;;;;23.06;65.52;100344.94;;;;-53
2020/08/24 16:27:30;;;;;;;3.01;1.50;;;;;;;23.08;65.46;100342.64;;;;-48
2020/08/24 16:30:30;;;;;;;5.07;1.62;;;;;;;23.09;65.50;100350.52;;;;-52
2020/08/24 16:33:30;;;;;;;5.81;1.59;;;;;;;23.10;65.46;100346.03;;;;-49
2020/08/24 16:36:30;;;;;;;5.07;1.68;;;;;;;23.11;65.58;100342.75;;;;-51
2020/08/24 16:39:30;;;;;;;3.71;1.60;;;;;;;23.11;65.55;100344.14;;;;-51
2020/08/24 16:42:30;;;;;;;4.01;1.64;;;;;;;23.13;65.58;100341.66;;;;-49
2020/08/24 16:45:30;;;;;;;5.42;1.50;;;;;;;23.13;65.53;100342.72;;;;-48
2020/08/24 16:48:30;;;;;;;3.33;1.51;;;;;;;23.14;65.66;100344.94;;;;-51